Sligo Airport - TAF
(Terminal Area Forecast)

Issued at 18:21 UTC on Mon. 20-May-19

--- METARS(SA) ---

METAR EISG(SLIGO) 201800Z AUTO 33009KT CAVOK 12/06 Q//// =

--- TAFS() ---

TAF EISG(SLIGO) 201700Z 2018/2103 34008KT 9999 FEW030 BECMG

2020/2022 VRB03KT =

--- SIGMETS(WS) ---

IE - No VALID SIGMETS/Warnings FOR THIS AREA

--- SIGMETS Volcanic(WV) ---

IE - No VALID SIGMETS/Warnings FOR THIS AREA

--- SIGMETS(WS) ---

UK - No VALID SIGMETS/Warnings FOR THIS AREA

Sligo Airport - METARs

Latest METARs for Sligo and Donegal Airports - updated every 30 mins